Time;durP1;ratioP1;P1;durP2;ratioP2;P2;SDS_P1;SDS_P2;PMS_P1;PMS_P2;Temp;Humidity;BMP_temperature;BMP_pressure;BME280_temperature;BME280_humidity;BME280_pressure;Samples;Min_cycle;Max_cycle;Signal;HPM_P1;HPM_P2
2023/03/31 00:02:06;;;;;;;10.48;3.75;;;;;;;10.79;95.94;99845.44;5006025;28;20054;-87
2023/03/31 00:04:33;;;;;;;7.70;2.80;;;;;;;10.75;96.61;99846.78;5009117;28;20054;-87
2023/03/31 00:06:59;;;;;;;7.22;3.08;;;;;;;10.79;96.91;99845.44;5007937;28;20126;-86
2023/03/31 00:09:28;;;;;;;5.85;2.83;;;;;;;10.79;97.45;99856.72;5009749;28;20493;-87
2023/03/31 00:11:55;;;;;;;8.35;3.13;;;;;;;10.75;98.13;99852.03;5008576;28;20050;-87
2023/03/31 00:14:22;;;;;;;6.13;2.80;;;;;;;10.78;98.73;99849.06;5006548;28;20109;-86
2023/03/31 00:16:50;;;;;;;10.30;3.40;;;;;;;10.76;99.55;99849.22;5007662;28;20054;-87
2023/03/31 00:19:20;;;;;;;7.93;2.75;;;;;;;10.74;100.00;99848.59;5008509;28;20058;-86
2023/03/31 00:21:48;;;;;;;6.93;3.22;;;;;;;10.70;100.00;99828.19;5008659;28;20058;-87
2023/03/31 00:24:15;;;;;;;13.75;3.33;;;;;;;10.66;100.00;99838.19;5008511;28;20070;-87
2023/03/31 00:26:42;;;;;;;13.77;3.42;;;;;;;10.67;100.00;99824.13;5006835;28;20506;-86
2023/03/31 00:29:11;;;;;;;10.07;3.58;;;;;;;10.65;100.00;99820.84;5007575;28;20047;-86
2023/03/31 00:31:38;;;;;;;7.00;2.72;;;;;;;10.59;100.00;99816.31;5004257;28;20105;-86
2023/03/31 00:34:07;;;;;;;8.90;3.22;;;;;;;10.52;100.00;99794.47;5005353;28;20052;-86
2023/03/31 00:36:35;;;;;;;8.32;3.28;;;;;;;10.57;100.00;99802.59;5004201;28;20066;-86
2023/03/31 00:39:04;;;;;;;9.98;3.22;;;;;;;10.51;100.00;99791.03;5006091;28;20050;-86
2023/03/31 00:41:32;;;;;;;9.27;3.58;;;;;;;10.44;100.00;99791.91;5003943;28;20054;-87
2023/03/31 00:44:08;;;;;;;8.07;3.00;;;;;;;10.41;100.00;99782.63;5002981;28;20177;-86
2023/03/31 00:46:41;;;;;;;11.25;3.17;;;;;;;10.32;100.00;99775.84;5003845;28;20053;-86
2023/03/31 00:49:16;;;;;;;8.80;2.70;;;;;;;10.29;100.00;99766.53;5008875;28;20078;-85
2023/03/31 00:51:44;;;;;;;10.50;3.30;;;;;;;10.33;100.00;99755.75;5007074;28;20070;-86
2023/03/31 00:54:12;;;;;;;10.80;3.83;;;;;;;10.25;100.00;99757.44;5007196;28;20074;-86
2023/03/31 00:56:42;;;;;;;7.25;3.25;;;;;;;10.34;100.00;99749.53;5004973;28;20050;-86
2023/03/31 00:59:13;;;;;;;9.13;2.85;;;;;;;10.21;100.00;99735.22;5005005;28;20082;-86
2023/03/31 01:01:42;;;;;;;10.13;3.35;;;;;;;10.23;100.00;99748.13;5007159;28;20054;-86
2023/03/31 01:04:15;;;;;;;8.95;2.95;;;;;;;10.23;100.00;99733.25;5005636;28;20070;-85
2023/03/31 01:06:49;;;;;;;;;;;;;;;10.23;100.00;99728.03;5006926;28;20061;-86
2023/03/31 01:09:17;;;;;;;10.32;3.50;;;;;;;10.16;100.00;99711.38;5006557;28;19975;-86
2023/03/31 01:11:46;;;;;;;8.20;3.50;;;;;;;10.16;100.00;99726.25;5004316;28;20065;-86
2023/03/31 01:14:12;;;;;;;11.32;3.20;;;;;;;10.10;100.00;99714.69;5002449;28;20062;-86
2023/03/31 01:16:39;;;;;;;8.30;2.80;;;;;;;10.13;100.00;99721.38;5002972;28;20085;-85
2023/03/31 01:19:13;;;;;;;7.90;2.90;;;;;;;10.13;100.00;99716.97;5001299;28;20082;-85
2023/03/31 01:22:30;;;;;;;9.60;3.33;;;;;;;10.07;100.00;99701.97;5002178;28;20078;-85
2023/03/31 01:25:26;;;;;;;12.93;3.15;;;;;;;10.09;100.00;99696.56;5000335;28;20133;-86
2023/03/31 01:28:04;;;;;;;7.60;3.20;;;;;;;10.03;100.00;99690.25;5001441;28;20065;-85
2023/03/31 01:31:01;;;;;;;7.35;3.10;;;;;;;9.99;100.00;99683.72;5001145;28;20034;-85
2023/03/31 01:34:08;;;;;;;11.82;3.67;;;;;;;9.99;100.00;99692.38;5000909;28;20141;-85
2023/03/31 01:37:03;;;;;;;10.35;3.75;;;;;;;10.07;100.00;99682.84;5001408;28;20109;-85
2023/03/31 01:40:21;;;;;;;12.13;3.72;;;;;;;10.08;100.00;99692.31;5000925;28;20093;-86
2023/03/31 01:42:57;;;;;;;7.90;3.38;;;;;;;10.06;100.00;99683.84;4941992;29;20119;-85
2023/03/31 01:45:35;;;;;;;7.22;3.38;;;;;;;10.02;100.00;99682.56;4943326;29;20747;-85
2023/03/31 01:48:11;;;;;;;12.10;4.30;;;;;;;10.12;100.00;99683.97;4980757;28;20085;-85
2023/03/31 01:50:45;;;;;;;9.98;3.65;;;;;;;10.17;100.00;99686.88;5007942;28;20141;-85
2023/03/31 01:53:20;;;;;;;13.13;3.80;;;;;;;10.15;100.00;99678.38;5006413;28;20061;-86
2023/03/31 01:55:53;;;;;;;9.02;3.28;;;;;;;10.18;100.00;99667.56;5007498;28;20057;-86
2023/03/31 01:58:26;;;;;;;14.98;4.13;;;;;;;10.28;100.00;99667.38;5008000;28;20065;-86
2023/03/31 02:01:00;;;;;;;11.43;3.78;;;;;;;10.34;100.00;99665.84;5008472;28;20055;-87
2023/03/31 02:03:33;;;;;;;11.05;3.95;;;;;;;10.20;100.00;99652.56;5011426;28;20042;-87
2023/03/31 02:06:08;;;;;;;11.23;4.75;;;;;;;10.23;100.00;99636.53;5016179;28;20042;-87
2023/03/31 02:08:40;;;;;;;9.82;3.85;;;;;;;10.22;100.00;99636.69;5004834;28;20054;-87
2023/03/31 02:11:07;;;;;;;13.00;3.70;;;;;;;10.35;100.00;99651.78;5001072;28;20137;-87
2023/03/31 02:13:40;;;;;;;11.63;3.83;;;;;;;10.22;100.00;99632.28;5004104;28;20078;-87
2023/03/31 02:16:11;;;;;;;12.52;3.70;;;;;;;10.24;100.00;99621.66;5002302;28;20528;-86
2023/03/31 02:18:40;;;;;;;10.50;3.63;;;;;;;10.37;100.00;99632.31;5014301;28;20046;-86
2023/03/31 02:21:08;;;;;;;11.45;3.47;;;;;;;10.37;100.00;99623.66;5016400;28;20058;-86
2023/03/31 02:23:38;;;;;;;13.55;3.90;;;;;;;10.32;100.00;99605.06;5016625;28;20050;-86
2023/03/31 02:26:10;;;;;;;11.05;4.07;;;;;;;10.32;100.00;99599.84;5016816;28;20038;-86
2023/03/31 02:28:38;;;;;;;13.00;4.82;;;;;;;10.29;100.00;99580.91;5016559;28;20046;-85
2023/03/31 02:31:22;;;;;;;10.63;3.90;;;;;;;10.28;100.00;99574.06;5016399;28;20038;-86
2023/03/31 02:33:49;;;;;;;13.50;4.07;;;;;;;10.30;100.00;99566.03;5016726;28;20058;-85
2023/03/31 02:36:16;;;;;;;14.40;3.88;;;;;;;10.30;100.00;99556.38;5011789;28;20043;-86
2023/03/31 02:38:46;;;;;;;9.93;3.63;;;;;;;10.29;100.00;99554.75;5004603;28;20046;-86
2023/03/31 02:41:13;;;;;;;12.30;4.00;;;;;;;10.25;100.00;99548.25;5001975;28;20085;-86
2023/03/31 02:43:41;;;;;;;13.95;4.03;;;;;;;10.30;100.00;99550.34;5002029;28;20050;-87
2023/03/31 02:46:08;;;;;;;17.27;4.30;;;;;;;10.21;100.00;99541.78;5000706;28;20112;-86
2023/03/31 02:48:37;;;;;;;15.68;4.00;;;;;;;10.24;100.00;99530.94;5001241;28;20050;-87
2023/03/31 02:51:28;;;;;;;12.55;4.53;;;;;;;10.18;100.00;99515.13;5002541;28;20105;-84
2023/03/31 02:54:15;;;;;;;16.05;3.92;;;;;;;10.14;100.00;99500.81;5010657;28;20054;-87
2023/03/31 02:56:56;;;;;;;16.27;4.43;;;;;;;10.13;100.00;99473.03;5008729;28;20147;-88
2023/03/31 02:59:38;;;;;;;15.38;4.15;;;;;;;10.14;100.00;99478.09;5006577;28;20093;-87
2023/03/31 03:02:17;;;;;;;14.57;4.10;;;;;;;10.08;100.00;99468.34;5006397;28;20450;-86
2023/03/31 03:05:08;;;;;;;11.32;4.20;;;;;;;10.03;100.00;99459.44;5004884;28;20053;-86
2023/03/31 03:07:44;;;;;;;17.23;4.40;;;;;;;10.01;100.00;99451.78;5005599;28;20078;-87
2023/03/31 03:10:17;;;;;;;16.17;4.32;;;;;;;10.10;100.00;99461.16;5003828;28;20056;-87
2023/03/31 03:12:52;;;;;;;13.32;4.40;;;;;;;10.13;100.00;99455.56;5003381;28;20101;-87
2023/03/31 03:15:26;;;;;;;10.75;3.75;;;;;;;10.14;100.00;99448.53;5002261;28;20081;-87
2023/03/31 03:17:54;;;;;;;9.65;4.00;;;;;;;10.07;100.00;99443.22;5003478;28;20054;-87
2023/03/31 03:20:22;;;;;;;12.82;3.92;;;;;;;10.09;100.00;99438.63;5002192;28;20175;-86
2023/03/31 03:22:49;;;;;;;15.07;4.32;;;;;;;10.02;100.00;99437.72;5003665;28;20092;-87
2023/03/31 03:25:17;;;;;;;18.75;4.40;;;;;;;9.91;100.00;99425.13;5004508;28;20093;-87
2023/03/31 03:27:44;;;;;;;11.32;4.28;;;;;;;9.97;100.00;99434.84;5005719;28;20074;-86
2023/03/31 03:30:13;;;;;;;20.95;4.70;;;;;;;9.98;100.00;99436.44;5004870;28;20159;-86
2023/03/31 03:32:41;;;;;;;17.45;4.22;;;;;;;9.99;100.00;99427.63;5004935;28;20183;-87
2023/03/31 03:35:09;;;;;;;16.80;5.30;;;;;;;9.93;100.00;99416.09;5006739;28;20126;-85
2023/03/31 03:37:35;;;;;;;17.73;5.07;;;;;;;9.93;100.00;99413.47;5006032;28;20109;-85
2023/03/31 03:40:04;;;;;;;21.50;5.20;;;;;;;9.93;100.00;99412.66;5005286;28;20080;-86
2023/03/31 03:42:31;;;;;;;19.52;5.43;;;;;;;9.86;100.00;99402.16;5005867;28;20509;-86
2023/03/31 03:44:58;;;;;;;17.92;5.28;;;;;;;9.88;100.00;99404.59;5005970;28;20074;-86
2023/03/31 03:47:25;;;;;;;14.13;4.43;;;;;;;9.89;100.00;99380.06;5004239;28;20112;-86
2023/03/31 03:49:53;;;;;;;16.55;4.57;;;;;;;9.89;100.00;99388.72;5003022;28;20441;-87
2023/03/31 03:52:20;;;;;;;18.15;4.70;;;;;;;9.93;100.00;99391.75;5003758;28;20134;-87
2023/03/31 03:54:46;;;;;;;15.65;4.60;;;;;;;9.92;100.00;99374.50;5004167;28;20081;-86
2023/03/31 03:57:13;;;;;;;12.30;3.97;;;;;;;10.03;100.00;99362.72;5002954;28;20093;-86
2023/03/31 03:59:40;;;;;;;10.75;3.80;;;;;;;10.09;100.00;99370.66;5003965;28;20052;-87
2023/03/31 04:05:58;;;;;;;10.93;3.83;;;;;;;10.10;100.00;99340.91;4907566;28;20144;-86
2023/03/31 04:08:24;;;;;;;10.80;3.63;;;;;;;10.09;100.00;99334.06;5003975;28;20432;-86
2023/03/31 04:10:51;;;;;;;10.02;3.45;;;;;;;10.08;100.00;99329.03;5001655;28;20069;-87
2023/03/31 04:13:19;;;;;;;6.32;2.97;;;;;;;10.20;100.00;99341.47;5002094;28;20042;-86
2023/03/31 04:15:46;;;;;;;10.25;3.35;;;;;;;10.19;100.00;99318.94;5003021;28;20081;-87
2023/03/31 04:18:17;;;;;;;8.38;3.22;;;;;;;10.22;100.00;99322.97;5003112;28;20051;-86
2023/03/31 04:20:53;;;;;;;9.90;3.00;;;;;;;10.26;100.00;99319.00;5003331;28;20436;-86
2023/03/31 04:23:22;;;;;;;7.70;2.63;;;;;;;10.28;100.00;99311.78;5004405;28;20054;-86
2023/03/31 04:25:50;;;;;;;6.93;2.78;;;;;;;10.30;100.00;99289.69;5003775;28;20081;-86
2023/03/31 04:28:16;;;;;;;5.68;2.80;;;;;;;10.30;100.00;99278.41;5002821;28;20054;-86
2023/03/31 04:30:43;;;;;;;5.97;2.80;;;;;;;10.33;100.00;99253.72;5003568;28;20078;-87
2023/03/31 04:33:14;;;;;;;6.07;2.85;;;;;;;10.30;100.00;99242.63;5003902;28;20050;-86
2023/03/31 04:35:51;;;;;;;5.05;2.63;;;;;;;10.23;100.00;99239.13;5004276;28;20049;-86
2023/03/31 04:38:20;;;;;;;9.98;2.90;;;;;;;10.21;100.00;99233.28;5004821;28;20078;-85
2023/03/31 04:40:48;;;;;;;9.18;3.10;;;;;;;10.19;100.00;99234.44;5004610;28;20050;-86
2023/03/31 04:43:16;;;;;;;7.32;2.72;;;;;;;10.11;100.00;99227.53;5003877;28;20050;-86
2023/03/31 04:45:43;;;;;;;7.22;2.95;;;;;;;10.09;100.00;99218.25;5005201;28;20061;-85
2023/03/31 04:48:11;;;;;;;7.72;2.60;;;;;;;10.13;100.00;99216.88;5003865;28;20053;-86
2023/03/31 04:50:38;;;;;;;10.30;3.00;;;;;;;10.15;100.00;99202.63;5003273;28;20074;-86
2023/03/31 04:53:05;;;;;;;9.32;2.78;;;;;;;10.09;99.95;99200.78;5002207;28;20078;-86
2023/03/31 04:55:36;;;;;;;7.38;2.80;;;;;;;10.05;100.00;99191.69;5005472;28;20082;-86
2023/03/31 04:58:02;;;;;;;4.55;2.13;;;;;;;10.06;99.89;99184.66;5002118;28;20122;-86
2023/03/31 05:00:29;;;;;;;4.82;2.30;;;;;;;10.09;99.17;99172.03;5006147;28;20070;-86
2023/03/31 05:03:27;;;;;;;8.02;2.85;;;;;;;9.94;99.23;99145.16;5008845;28;20057;-86
2023/03/31 05:05:54;;;;;;;7.78;3.28;;;;;;;10.09;99.05;99166.78;4941944;29;20060;-86
2023/03/31 05:08:21;;;;;;;9.73;3.20;;;;;;;10.08;98.89;99149.50;5009928;28;20064;-87
2023/03/31 05:10:49;;;;;;;5.47;2.58;;;;;;;10.14;98.71;99151.34;5008753;28;20046;-86
2023/03/31 05:16:34;;;;;;;7.22;2.90;;;;;;;10.27;97.36;99130.59;4961289;28;20081;-86
2023/03/31 05:19:01;;;;;;;5.78;2.70;;;;;;;10.30;97.55;99127.59;5006719;28;20039;-87
2023/03/31 05:21:29;;;;;;;4.50;2.50;;;;;;;10.29;97.27;99122.56;5016318;28;20057;-86
2023/03/31 05:23:56;;;;;;;8.52;3.00;;;;;;;10.31;97.03;99112.72;5006450;28;20054;-87
2023/03/31 05:26:24;;;;;;;5.32;2.40;;;;;;;10.30;96.92;99111.91;5013998;28;20060;-87
2023/03/31 05:28:51;;;;;;;4.22;2.40;;;;;;;10.35;96.80;99116.56;5004659;28;20038;-88
2023/03/31 05:31:18;;;;;;;7.07;2.70;;;;;;;10.32;97.13;99109.09;5005585;28;20105;-88
2023/03/31 05:33:48;;;;;;;4.15;2.58;;;;;;;10.34;97.20;99111.53;4998024;28;20129;-88
2023/03/31 05:36:18;;;;;;;10.38;3.35;;;;;;;10.31;97.36;99112.72;5005705;28;20082;-88
2023/03/31 05:38:46;;;;;;;5.03;2.38;;;;;;;10.38;97.14;99102.28;5005479;28;20092;-88
2023/03/31 05:41:13;;;;;;;8.40;2.50;;;;;;;10.41;97.07;99112.34;5017080;28;20056;-89
2023/03/31 05:43:42;;;;;;;7.47;3.10;;;;;;;10.37;96.91;99103.28;4999646;28;20046;-88
2023/03/31 05:46:09;;;;;;;8.82;3.03;;;;;;;10.40;97.26;99092.47;4999035;28;20106;-89
2023/03/31 05:48:36;;;;;;;5.97;2.63;;;;;;;10.38;97.03;99086.63;4999348;28;20043;-87
2023/03/31 05:51:03;;;;;;;7.18;3.17;;;;;;;10.40;96.77;99084.63;5007050;28;20640;-87
2023/03/31 05:53:30;;;;;;;6.05;2.50;;;;;;;10.43;97.25;99094.66;4998284;28;20462;-87
2023/03/31 05:55:58;;;;;;;5.80;2.58;;;;;;;10.40;97.63;99088.00;5014242;28;20065;-87
2023/03/31 05:58:25;;;;;;;5.15;2.50;;;;;;;10.39;97.87;99083.00;5017644;28;20077;-87
2023/03/31 06:01:04;;;;;;;4.03;2.38;;;;;;;10.36;97.92;99086.81;5011619;28;20129;-87
2023/03/31 06:03:31;;;;;;;5.93;2.72;;;;;;;10.38;97.73;99076.16;4998962;28;20054;-87
2023/03/31 06:05:57;;;;;;;4.32;2.25;;;;;;;10.37;97.75;99071.91;4998933;28;20093;-88
2023/03/31 06:08:24;;;;;;;3.80;1.90;;;;;;;10.34;98.20;99065.28;5016714;23;20060;-79
2023/03/31 06:10:51;;;;;;;6.13;2.40;;;;;;;10.33;98.23;99062.84;5072127;28;20040;-80
2023/03/31 06:13:18;;;;;;;2.83;1.92;;;;;;;10.26;98.00;99047.94;5076288;28;20045;-79
2023/03/31 06:15:53;;;;;;;5.65;2.45;;;;;;;10.28;98.36;99055.56;5077186;28;20542;-79
2023/03/31 06:18:21;;;;;;;3.63;2.08;;;;;;;10.33;97.92;99052.38;5076826;28;20695;-78
2023/03/31 06:20:48;;;;;;;4.47;2.28;;;;;;;10.34;97.43;99043.53;5077231;28;20080;-79
2023/03/31 06:23:14;;;;;;;3.08;2.20;;;;;;;10.43;96.26;99048.41;5076562;28;20069;-79
2023/03/31 06:25:41;;;;;;;4.35;2.20;;;;;;;10.39;95.87;99035.94;5078732;28;20076;-78
2023/03/31 06:28:08;;;;;;;4.63;2.05;;;;;;;10.50;95.66;99053.66;5077868;28;20083;-79
2023/03/31 06:30:35;;;;;;;2.08;1.52;;;;;;;10.45;95.88;99053.44;5076780;28;20059;-79
2023/03/31 06:33:02;;;;;;;6.20;1.92;;;;;;;10.36;96.03;99044.97;5076773;28;20143;-78
2023/03/31 06:35:30;;;;;;;3.03;1.75;;;;;;;10.29;96.61;99039.69;5076278;28;20041;-78
2023/03/31 06:37:57;;;;;;;4.90;1.73;;;;;;;10.29;96.98;99057.19;5075596;28;20052;-79
2023/03/31 06:40:24;;;;;;;2.20;1.40;;;;;;;10.28;96.63;99051.16;5075597;28;20071;-77
2023/03/31 06:42:51;;;;;;;6.50;2.58;;;;;;;10.32;96.31;99043.72;5077804;28;20049;-79
2023/03/31 06:45:17;;;;;;;9.18;5.20;;;;;;;10.30;96.36;99040.50;5070588;28;20053;-79
2023/03/31 06:47:44;;;;;;;3.10;2.00;;;;;;;10.26;96.49;99034.84;5074478;28;20044;-79
2023/03/31 06:50:11;;;;;;;3.55;2.40;;;;;;;10.30;95.82;99027.44;5073290;28;20056;-80
2023/03/31 06:52:39;;;;;;;6.65;4.10;;;;;;;10.36;95.67;99034.50;5075437;28;20068;-79
2023/03/31 06:55:07;;;;;;;2.13;1.50;;;;;;;10.35;95.40;99013.78;5072835;28;20510;-79
2023/03/31 06:58:04;;;;;;;16.73;11.68;;;;;;;10.34;95.14;99018.22;5070748;28;20045;-80
2023/03/31 07:00:39;;;;;;;5.15;3.85;;;;;;;10.44;94.82;99017.81;5065429;28;20547;-78
2023/03/31 07:03:37;;;;;;;4.90;3.38;;;;;;;10.56;93.98;99029.34;5080882;28;20108;-79
2023/03/31 07:06:20;;;;;;;2.78;1.60;;;;;;;10.76;93.55;99021.59;5030359;28;20098;-78
2023/03/31 07:09:14;;;;;;;5.50;4.03;;;;;;;10.96;92.52;99018.03;5078823;28;20048;-79
2023/03/31 07:14:43;;;;;;;2.70;1.77;;;;;;;11.61;89.62;99026.97;5057101;28;20041;-75
2023/03/31 07:17:10;;;;;;;7.35;6.03;;;;;;;11.95;88.48;99033.03;5068563;28;20044;-76
2023/03/31 07:19:40;;;;;;;3.35;2.38;;;;;;;12.78;86.82;99023.47;5071562;28;20048;-74
2023/03/31 07:22:07;;;;;;;3.85;2.75;;;;;;;13.42;84.24;99027.78;5072683;28;20656;-78
2023/03/31 07:24:35;;;;;;;6.85;4.72;;;;;;;13.21;82.27;99017.66;5065856;28;20119;-78
2023/03/31 07:27:02;;;;;;;4.60;3.25;;;;;;;12.91;82.98;99023.44;5071900;28;20044;-78
2023/03/31 07:29:29;;;;;;;3.80;2.35;;;;;;;12.58;83.65;99017.53;5074582;28;20680;-76
2023/03/31 07:31:55;;;;;;;7.95;3.75;;;;;;;12.56;84.20;99009.88;5074323;28;20049;-78
2023/03/31 07:34:22;;;;;;;16.70;13.52;;;;;;;12.30;84.79;99015.19;5074412;28;20563;-78
2023/03/31 07:36:50;;;;;;;6.05;4.50;;;;;;;12.55;85.10;99012.69;5074942;28;20084;-78
2023/03/31 07:39:17;;;;;;;3.65;2.50;;;;;;;12.41;84.89;99006.69;5075972;28;20049;-78
2023/03/31 07:41:45;;;;;;;4.03;3.35;;;;;;;12.59;85.01;99003.41;5078127;28;20473;-78
2023/03/31 07:44:11;;;;;;;6.50;3.70;;;;;;;12.87;84.01;99003.84;5076221;28;20127;-79
2023/03/31 07:46:39;;;;;;;5.43;3.47;;;;;;;12.58;84.14;98984.22;5079800;28;20056;-78
2023/03/31 07:49:06;;;;;;;5.47;3.10;;;;;;;12.80;84.09;98995.22;5078781;28;20117;-77
2023/03/31 07:51:33;;;;;;;6.00;3.55;;;;;;;13.32;83.01;98993.31;5078009;28;20528;-78
2023/03/31 07:54:00;;;;;;;5.45;1.98;;;;;;;13.71;81.76;98986.09;5077020;28;20052;-78
2023/03/31 07:56:27;;;;;;;7.07;4.65;;;;;;;13.99;80.96;98994.34;5078616;28;20127;-77
2023/03/31 07:58:55;;;;;;;4.32;2.40;;;;;;;13.78;80.92;98992.09;5077721;28;20419;-77
2023/03/31 08:01:24;;;;;;;3.92;1.77;;;;;;;13.69;81.09;99001.31;5078644;28;20052;-79
2023/03/31 08:03:53;;;;;;;2.92;1.85;;;;;;;13.49;81.38;99004.91;5079060;28;20139;-76
2023/03/31 08:06:22;;;;;;;5.43;2.42;;;;;;;13.38;82.05;99002.97;5078129;28;20132;-77
2023/03/31 08:08:49;;;;;;;6.03;1.80;;;;;;;13.24;82.58;98991.72;5077872;28;20052;-78
2023/03/31 08:11:15;;;;;;;5.78;2.20;;;;;;;12.83;83.42;98999.25;5077547;28;20049;-78
2023/03/31 08:13:42;;;;;;;8.25;2.40;;;;;;;12.64;84.22;98979.97;5079240;28;20151;-77
2023/03/31 08:16:10;;;;;;;5.22;1.63;;;;;;;12.66;84.90;98983.19;5078702;28;20310;-79
2023/03/31 08:18:37;;;;;;;7.20;3.70;;;;;;;12.79;84.79;98977.03;5079393;28;20086;-79
2023/03/31 08:21:03;;;;;;;5.50;3.05;;;;;;;12.86;84.95;98973.38;5078676;28;20113;-77
2023/03/31 08:23:30;;;;;;;6.40;2.17;;;;;;;13.00;84.67;98973.31;5078152;28;20076;-79
2023/03/31 08:26:08;;;;;;;10.20;2.60;;;;;;;13.05;84.06;98963.78;5080727;28;20049;-79
2023/03/31 08:28:34;;;;;;;7.38;3.03;;;;;;;13.10;83.86;98957.88;5079767;28;20136;-79
2023/03/31 08:31:15;;;;;;;9.82;4.28;;;;;;;13.34;83.71;98951.88;5080739;28;20114;-80
2023/03/31 08:33:43;;;;;;;5.43;2.75;;;;;;;13.46;83.04;98950.16;5078045;28;20203;-78
2023/03/31 08:36:10;;;;;;;5.15;2.65;;;;;;;13.61;82.40;98963.78;5079835;28;20073;-79
2023/03/31 08:38:37;;;;;;;9.13;3.22;;;;;;;13.49;82.32;98965.50;5079266;28;20143;-79
2023/03/31 08:41:07;;;;;;;7.30;3.83;;;;;;;13.58;81.60;98961.56;5078917;28;20098;-78
2023/03/31 08:43:40;;;;;;;8.52;2.92;;;;;;;13.78;81.76;98963.19;5078442;28;20048;-79
2023/03/31 08:46:10;;;;;;;;;;;;;;;14.33;80.15;98952.69;5079899;28;20160;-79
2023/03/31 08:48:44;;;;;;;8.80;3.13;;;;;;;15.04;78.06;98950.16;5078477;28;19942;-78
2023/03/31 08:51:17;;;;;;;8.18;3.38;;;;;;;15.42;75.59;98939.19;5078867;28;20079;-78
2023/03/31 08:53:50;;;;;;;7.47;3.17;;;;;;;15.72;74.61;98944.38;5080379;28;20083;-79
2023/03/31 08:56:19;;;;;;;10.93;3.42;;;;;;;15.75;73.69;98925.47;5078705;28;20072;-78
2023/03/31 08:58:47;;;;;;;8.88;3.17;;;;;;;16.05;73.21;98932.44;5078753;28;20055;-79
2023/03/31 09:01:30;;;;;;;9.95;3.63;;;;;;;15.94;73.62;98939.31;5079115;28;20080;-78
2023/03/31 09:04:15;;;;;;;10.48;3.70;;;;;;;15.99;73.36;98942.06;5081912;28;20049;-80
2023/03/31 09:06:50;;;;;;;7.63;3.75;;;;;;;15.98;72.89;98935.19;5072750;28;20049;-77
2023/03/31 09:09:24;;;;;;;8.90;3.55;;;;;;;16.10;73.13;98932.50;5067430;28;20049;-78
2023/03/31 09:11:56;;;;;;;9.20;3.47;;;;;;;15.68;73.81;98934.53;5079420;28;20104;-79
2023/03/31 09:14:33;;;;;;;9.90;3.47;;;;;;;15.38;74.40;98951.22;5078282;28;20090;-79
2023/03/31 09:17:11;;;;;;;12.48;3.92;;;;;;;15.62;74.43;98940.72;5078617;28;20080;-80
2023/03/31 09:19:42;;;;;;;10.73;3.47;;;;;;;15.40;74.42;98933.34;5070136;28;20044;-79
2023/03/31 09:22:16;;;;;;;10.35;3.80;;;;;;;15.33;74.60;98932.66;5077389;28;20131;-78
2023/03/31 09:24:50;;;;;;;10.80;3.53;;;;;;;15.08;74.44;98924.16;5078735;28;20144;-79
2023/03/31 09:27:19;;;;;;;9.85;3.60;;;;;;;15.14;73.50;98921.41;5077857;28;20089;-77
2023/03/31 09:29:50;;;;;;;13.13;3.92;;;;;;;14.94;72.74;98908.53;5073151;28;20045;-80
2023/03/31 09:32:18;;;;;;;9.18;3.75;;;;;;;15.15;73.41;98903.75;5068460;28;20049;-79
2023/03/31 09:34:46;;;;;;;11.57;3.38;;;;;;;15.15;73.92;98904.56;5082122;28;20064;-78
2023/03/31 09:37:14;;;;;;;10.15;3.67;;;;;;;14.77;74.31;98904.94;5079214;28;20048;-79
2023/03/31 09:39:41;;;;;;;10.07;3.20;;;;;;;14.97;74.07;98895.97;5079649;28;20103;-78
2023/03/31 09:42:12;;;;;;;12.40;4.32;;;;;;;15.13;73.23;98895.28;5076652;28;20087;-77
2023/03/31 09:44:41;;;;;;;12.57;3.60;;;;;;;15.19;72.40;98878.56;5078498;28;20051;-78
2023/03/31 09:47:13;;;;;;;8.57;3.35;;;;;;;15.31;71.56;98882.00;5069327;28;20418;-78
2023/03/31 09:49:44;;;;;;;15.00;3.40;;;;;;;15.88;71.46;98884.84;5070851;28;20135;-78
2023/03/31 09:52:23;;;;;;;10.20;3.45;;;;;;;16.14;69.98;98873.75;5079236;28;20147;-80
2023/03/31 09:54:52;;;;;;;9.80;3.38;;;;;;;16.02;70.65;98880.13;5078219;28;20135;-78
2023/03/31 09:57:26;;;;;;;11.15;4.03;;;;;;;15.59;70.26;98871.63;5078245;28;20048;-80
2023/03/31 10:00:01;;;;;;;16.23;4.32;;;;;;;15.41;70.51;98863.00;5077940;28;20052;-80
2023/03/31 10:02:39;;;;;;;8.90;3.08;;;;;;;15.62;71.00;98877.44;5068700;28;20045;-81
2023/03/31 10:05:08;;;;;;;11.77;3.80;;;;;;;15.52;70.41;98852.44;5079860;28;20417;-81
2023/03/31 10:07:36;;;;;;;12.80;3.92;;;;;;;15.14;70.80;98855.53;5079571;28;20129;-79
2023/03/31 10:10:09;;;;;;;15.50;3.95;;;;;;;15.07;71.94;98875.13;5078423;28;20087;-80
2023/03/31 10:12:37;;;;;;;11.00;3.42;;;;;;;15.03;72.67;98863.44;5070565;28;20087;-80
2023/03/31 10:15:22;;;;;;;13.15;4.28;;;;;;;15.23;72.39;98869.16;5078731;28;20135;-78
2023/03/31 10:17:50;;;;;;;12.88;4.25;;;;;;;15.24;73.17;98870.78;5077930;28;20045;-79
2023/03/31 10:20:31;;;;;;;12.75;4.63;;;;;;;15.56;72.86;98863.34;5070732;28;20086;-79
2023/03/31 10:23:04;;;;;;;14.65;3.58;;;;;;;15.95;71.96;98861.78;5078793;28;20158;-81
2023/03/31 10:25:33;;;;;;;12.95;3.90;;;;;;;15.92;70.35;98856.97;5079426;28;20127;-80
2023/03/31 10:28:01;;;;;;;13.07;4.15;;;;;;;16.30;69.98;98853.75;5078376;28;20052;-79
2023/03/31 10:30:38;;;;;;;9.32;3.85;;;;;;;16.22;70.26;98844.38;5078866;28;20789;-80
2023/03/31 10:33:16;;;;;;;14.35;4.43;;;;;;;16.32;69.71;98833.19;5082053;28;20077;-78
2023/03/31 10:35:43;;;;;;;8.95;3.70;;;;;;;16.39;69.20;98831.22;5081283;28;20418;-80
2023/03/31 10:38:15;;;;;;;10.98;3.58;;;;;;;15.89;68.15;98817.88;5081073;28;20105;-79
2023/03/31 10:40:51;;;;;;;12.73;3.80;;;;;;;15.87;69.83;98817.31;5072510;28;20052;-77
2023/03/31 10:43:21;;;;;;;8.40;3.58;;;;;;;15.80;70.00;98821.91;5071039;28;20045;-81
2023/03/31 10:45:49;;;;;;;11.52;3.47;;;;;;;15.08;72.37;98808.25;5078822;28;20537;-80
2023/03/31 10:48:25;;;;;;;13.57;4.15;;;;;;;14.72;75.57;98841.63;5078603;28;20056;-80
2023/03/31 10:50:51;;;;;;;10.63;4.03;;;;;;;14.39;78.35;98846.56;5077730;28;20052;-80
2023/03/31 10:53:20;;;;;;;8.98;3.53;;;;;;;14.45;79.70;98835.97;5075592;28;20128;-79
2023/03/31 10:55:58;;;;;;;12.00;3.80;;;;;;;14.37;78.43;98824.94;5076760;28;20048;-76
2023/03/31 10:58:38;;;;;;;14.55;4.50;;;;;;;14.41;78.51;98820.81;5075203;28;20119;-78
2023/03/31 11:01:18;;;;;;;9.55;3.40;;;;;;;14.30;78.09;98856.59;5076408;28;20083;-78
2023/03/31 11:04:02;;;;;;;11.23;3.83;;;;;;;13.86;79.10;98857.75;5070635;28;20123;-80
2023/03/31 11:06:39;;;;;;;8.88;3.03;;;;;;;11.52;86.43;98893.78;5077086;28;20062;-79
2023/03/31 11:09:21;;;;;;;5.85;2.55;;;;;;;10.52;92.50;98869.41;5076165;28;20057;-79
2023/03/31 11:11:57;;;;;;;8.52;2.47;;;;;;;10.42;95.98;98886.47;5077741;28;20143;-79
2023/03/31 11:14:35;;;;;;;6.53;2.33;;;;;;;10.34;97.85;98868.38;5080702;28;20088;-78
2023/03/31 11:17:11;;;;;;;4.60;3.13;;;;;;;10.52;99.14;98858.13;5081340;28;20084;-79
2023/03/31 11:19:49;;;;;;;5.43;2.13;;;;;;;10.71;99.46;98846.09;5082607;28;20063;-80
2023/03/31 11:22:25;;;;;;;5.80;2.50;;;;;;;10.87;99.32;98828.19;5081040;28;21999;-79
2023/03/31 11:25:20;;;;;;;5.20;2.17;;;;;;;11.35;99.25;98827.91;5080991;28;20106;-77
2023/03/31 11:28:08;;;;;;;6.57;1.90;;;;;;;11.72;97.83;98823.81;5070234;28;20052;-79
2023/03/31 11:30:46;;;;;;;5.97;1.80;;;;;;;12.06;96.84;98819.25;5078194;28;20052;-78
2023/03/31 11:33:52;;;;;;;9.48;2.40;;;;;;;12.34;95.28;98819.69;5077956;28;20098;-80
2023/03/31 11:36:40;;;;;;;5.85;2.17;;;;;;;12.98;94.64;98817.81;5031835;28;20084;-80
2023/03/31 11:39:21;;;;;;;5.53;2.17;;;;;;;13.49;92.99;98831.47;5079088;28;20052;-78
2023/03/31 11:41:51;;;;;;;7.35;2.45;;;;;;;13.76;91.18;98818.84;5078924;28;20044;-78
2023/03/31 11:44:20;;;;;;;4.43;2.20;;;;;;;14.03;89.46;98821.94;5081568;28;20510;-78
2023/03/31 11:46:50;;;;;;;5.65;2.25;;;;;;;14.35;87.63;98814.63;5071908;28;20044;-79
2023/03/31 11:49:23;;;;;;;9.70;2.75;;;;;;;14.59;86.41;98816.34;5081026;28;20470;-79
2023/03/31 11:51:53;;;;;;;8.90;3.25;;;;;;;14.59;84.83;98807.63;5080478;28;20076;-77
2023/03/31 11:54:25;;;;;;;7.10;3.08;;;;;;;15.12;83.98;98809.41;5079592;28;20052;-78
2023/03/31 11:56:55;;;;;;;8.75;3.65;;;;;;;15.15;82.44;98803.66;5079579;28;20140;-78
2023/03/31 11:59:26;;;;;;;11.05;3.67;;;;;;;15.17;81.33;98796.31;5070219;28;20144;-79
2023/03/31 12:02:01;;;;;;;14.82;4.07;;;;;;;15.30;81.00;98809.25;5079749;28;20056;-79